Loudonville, Ohio
Current Conditions -  °F | °C
As of 12:52 PM on Friday 19 Dec 2014 (Local Time) from KMFD Reporting Station
Overcast Overcast  
Wind Chill: 23°   Ceiling: 1300
Heat Index: 28°   Visibility: 8mi
Dew Point: 25°   Wind: 5mph
Humidity: 88%   Direction: 310°NW
Pressure: 30.22"   Gusts: NA
Location:  40.64°N, 82.23°W
Report Text: KMFD 191752Z 31004KT 8SM OVC013 M02/M04 A3022 RMK AO2 SLP249 T10221039 11022 21028 58001
Loading
Personal Weather Stations






























Interactive Weather Map New forecast layout! Learn more

10-Day Weather Forecast

Advertisements
Track Severe Weather on mobile